Time;durP1;ratioP1;P1;durP2;ratioP2;P2;SDS_P1;SDS_P2;PMS_P1;PMS_P2;Temp;Humidity;BMP_temperature;BMP_pressure;BME280_temperature;BME280_humidity;BME280_pressure;Samples;Min_cycle;Max_cycle;Signal;HPM_P1;HPM_P2
2023/04/06 00:02:59;;;;;;;43.70;20.30;;;;;;;-1.51;55.59;100792.81;130940;1263;107517;-76
2023/04/06 00:06:05;;;;;;;47.00;20.70;;;;;;;-1.50;55.75;100796.45;131117;1263;107531;-76
2023/04/06 00:09:11;;;;;;;39.80;19.00;;;;;;;-1.50;55.65;100794.88;131013;1262;107895;-77
2023/04/06 00:12:16;;;;;;;36.70;16.80;;;;;;;-1.52;55.67;100799.98;131084;1253;107402;-76
2023/04/06 00:15:22;;;;;;;33.30;15.60;;;;;;;-1.60;55.88;100798.55;131060;1263;107530;-77
2023/04/06 00:18:27;;;;;;;43.00;21.80;;;;;;;-1.59;55.99;100800.29;131031;1254;108640;-77
2023/04/06 00:21:33;;;;;;;41.80;20.60;;;;;;;-1.60;56.02;100801.39;131022;1263;106678;-76
2023/04/06 00:24:38;;;;;;;38.20;18.50;;;;;;;-1.55;56.21;100801.87;131005;1261;107441;-75
2023/04/06 00:27:44;;;;;;;42.80;18.50;;;;;;;-1.48;56.36;100801.59;131277;1256;109250;-76
2023/04/06 00:30:49;;;;;;;53.80;19.50;;;;;;;-1.41;56.54;100801.98;131150;1253;107468;-76
2023/04/06 00:33:54;;;;;;;41.80;17.40;;;;;;;-1.32;56.75;100796.23;131010;1263;110630;-77
2023/04/06 00:37:00;;;;;;;35.30;16.60;;;;;;;-1.24;57.06;100788.36;131306;1253;107559;-76
2023/04/06 00:40:07;;;;;;;32.10;14.80;;;;;;;-1.18;56.96;100781.85;130956;1257;106604;-76
2023/04/06 00:43:13;;;;;;;30.60;14.40;;;;;;;-1.11;57.02;100778.05;131201;1256;107549;-74
2023/04/06 00:46:19;;;;;;;32.40;15.90;;;;;;;-1.05;57.01;100775.33;131282;1255;107495;-73
2023/04/06 00:49:25;;;;;;;29.80;14.10;;;;;;;-0.99;57.20;100763.38;131246;1257;107583;-73
2023/04/06 00:52:30;;;;;;;29.60;14.70;;;;;;;-0.95;57.03;100758.66;131096;1257;107427;-75
2023/04/06 00:55:36;;;;;;;33.40;15.90;;;;;;;-0.90;57.11;100753.04;130803;1257;107241;-75
2023/04/06 00:58:42;;;;;;;31.00;15.30;;;;;;;-0.87;57.16;100754.30;130958;1255;107536;-76
2023/04/06 01:01:48;;;;;;;32.80;16.80;;;;;;;-0.82;57.30;100750.21;130962;1256;107445;-76
2023/04/06 01:05:07;;;;;;;32.80;16.80;;;;;;;-0.75;57.40;100748.20;130975;1256;107493;-76
2023/04/06 01:08:20;;;;;;;37.80;16.80;;;;;;;-0.70;57.70;100755.45;130958;1256;107502;-75
2023/04/06 01:11:27;;;;;;;43.00;17.00;;;;;;;-0.69;57.63;100754.75;130975;1254;106669;-76
2023/04/06 01:14:32;;;;;;;43.00;18.40;;;;;;;-0.63;57.76;100757.09;131011;1254;107393;-75
2023/04/06 01:17:40;;;;;;;41.40;17.10;;;;;;;-0.57;57.93;100752.98;130927;1256;108576;-75
2023/04/06 01:20:49;;;;;;;35.40;16.20;;;;;;;-0.52;57.93;100753.80;131159;1257;107338;-75
2023/04/06 01:23:56;;;;;;;40.50;17.00;;;;;;;-0.49;57.98;100753.83;131247;1262;107344;-74
2023/04/06 01:27:06;;;;;;;48.30;19.40;;;;;;;-0.45;58.04;100754.53;131269;1251;107401;-76
2023/04/06 01:30:19;;;;;;;39.20;16.80;;;;;;;-0.40;58.22;100759.70;130940;1264;107474;-74
2023/04/06 01:33:31;;;;;;;31.70;15.00;;;;;;;-0.36;58.35;100755.49;131239;1254;107449;-77
2023/04/06 01:36:43;;;;;;;25.50;13.00;;;;;;;-0.30;58.40;100755.08;131149;1256;107463;-74
2023/04/06 01:39:59;;;;;;;27.90;13.30;;;;;;;-0.27;58.66;100748.95;131316;1263;107342;-75
2023/04/06 01:43:15;;;;;;;30.30;14.30;;;;;;;-0.25;58.84;100744.47;131169;1251;107492;-76
2023/04/06 01:46:59;;;;;;;44.10;23.00;;;;;;;-0.30;58.72;100736.35;130985;1253;107506;-77
2023/04/06 01:50:07;;;;;;;40.90;21.20;;;;;;;-0.27;58.71;100739.19;130963;1257;107498;-76
2023/04/06 01:53:16;;;;;;;39.60;21.40;;;;;;;-0.25;58.74;100735.92;131132;1262;107429;-76
2023/04/06 01:56:22;;;;;;;38.50;20.00;;;;;;;-0.21;58.89;100736.82;131136;1261;107507;-76
2023/04/06 01:59:38;;;;;;;35.40;18.40;;;;;;;-0.19;58.98;100734.09;131058;1253;106468;-76
2023/04/06 02:02:48;;;;;;;39.10;19.90;;;;;;;-0.13;59.02;100731.70;130986;1254;107464;-75
2023/04/06 02:05:58;;;;;;;34.00;16.80;;;;;;;-0.07;58.97;100728.77;131000;1254;107460;-76
2023/04/06 02:09:09;;;;;;;28.40;15.30;;;;;;;-0.02;59.15;100724.89;131179;1253;107540;-74
2023/04/06 02:12:15;;;;;;;29.70;14.90;;;;;;;0.01;59.16;100722.63;131230;1254;108620;-76
2023/04/06 02:15:20;;;;;;;28.30;14.50;;;;;;;0.04;59.16;100722.14;131309;1253;107515;-76
2023/04/06 02:18:28;;;;;;;29.50;14.50;;;;;;;0.08;59.23;100721.79;131115;1254;107510;-75
2023/04/06 02:21:34;;;;;;;32.80;15.50;;;;;;;0.10;59.33;100717.33;131100;1253;108577;-75
2023/04/06 02:24:40;;;;;;;26.50;13.90;;;;;;;0.11;59.33;100716.70;131220;1254;107634;-76
2023/04/06 02:27:45;;;;;;;23.20;13.00;;;;;;;0.12;59.53;100714.38;130993;1251;107206;-76
2023/04/06 02:30:50;;;;;;;24.40;13.30;;;;;;;0.13;59.52;100711.19;130972;1254;107651;-76
2023/04/06 02:33:56;;;;;;;28.00;13.50;;;;;;;0.16;59.62;100710.86;131095;1253;107886;-77
2023/04/06 02:37:02;;;;;;;32.30;14.50;;;;;;;0.17;59.58;100713.79;131026;1261;107505;-75
2023/04/06 02:40:12;;;;;;;29.50;16.10;;;;;;;0.09;59.90;100712.27;131169;1254;107954;-76
2023/04/06 02:43:18;;;;;;;29.20;17.40;;;;;;;-0.01;59.86;100707.70;131055;1251;107251;-75
2023/04/06 02:46:24;;;;;;;27.70;15.50;;;;;;;0.01;59.99;100708.29;131169;1263;107447;-75
2023/04/06 02:49:29;;;;;;;28.80;16.00;;;;;;;0.06;60.09;100707.88;131110;1261;108673;-77
2023/04/06 02:52:36;;;;;;;32.20;16.60;;;;;;;0.10;60.17;100708.73;131106;1257;107481;-77
2023/04/06 02:55:42;;;;;;;32.30;17.00;;;;;;;0.16;60.26;100714.70;131094;1261;107416;-76
2023/04/06 02:58:48;;;;;;;32.60;17.90;;;;;;;0.21;60.25;100714.31;131048;1254;108556;-78
2023/04/06 03:01:55;;;;;;;40.40;21.40;;;;;;;0.24;60.29;100712.95;131008;1253;107506;-77
2023/04/06 03:05:01;;;;;;;45.50;25.70;;;;;;;0.22;60.09;100714.97;131041;1253;107584;-76
2023/04/06 03:08:11;;;;;;;43.30;24.10;;;;;;;0.24;60.34;100712.75;131007;1265;107525;-76
2023/04/06 03:11:21;;;;;;;39.80;20.20;;;;;;;0.28;60.50;100709.77;131053;1255;107536;-75
2023/04/06 03:14:28;;;;;;;35.20;20.00;;;;;;;0.33;60.53;100714.41;131260;1254;107462;-75
2023/04/06 03:17:35;;;;;;;46.10;22.60;;;;;;;0.37;60.55;100715.81;131086;1254;107507;-76
2023/04/06 03:20:42;;;;;;;43.70;22.20;;;;;;;0.40;60.54;100709.19;130985;1263;107530;-77
2023/04/06 03:23:50;;;;;;;35.10;18.80;;;;;;;0.42;60.65;100707.86;130995;1254;107512;-77
2023/04/06 03:26:56;;;;;;;31.50;15.80;;;;;;;0.51;60.75;100713.54;131026;1254;107379;-76
2023/04/06 03:30:03;;;;;;;31.10;16.60;;;;;;;0.63;60.63;100715.00;130935;1256;107489;-76
2023/04/06 03:33:14;;;;;;;31.30;17.60;;;;;;;0.73;60.56;100716.08;131014;1263;107479;-76
2023/04/06 03:36:27;;;;;;;32.60;17.50;;;;;;;0.79;60.65;100715.27;130993;1263;107431;-77
2023/04/06 03:39:34;;;;;;;35.80;19.80;;;;;;;0.84;60.76;100716.57;130938;1254;107410;-76
2023/04/06 03:42:40;;;;;;;37.60;20.90;;;;;;;0.87;60.67;100715.54;131052;1254;107539;-76
2023/04/06 03:45:50;;;;;;;34.40;18.50;;;;;;;0.88;60.78;100716.02;131078;1263;106550;-76
2023/04/06 03:48:56;;;;;;;36.00;20.00;;;;;;;0.90;60.79;100714.52;131101;1263;107557;-77
2023/04/06 03:52:03;;;;;;;37.10;20.00;;;;;;;0.91;60.73;100711.13;130997;1253;107470;-77
2023/04/06 03:55:10;;;;;;;34.30;19.50;;;;;;;0.91;60.70;100708.13;131146;1263;107560;-76
2023/04/06 03:58:16;;;;;;;36.00;19.40;;;;;;;0.86;60.70;100706.84;131210;1253;107541;-77
2023/04/06 04:01:21;;;;;;;34.00;19.50;;;;;;;0.82;60.68;100710.38;131175;1263;106529;-77
2023/04/06 04:04:27;;;;;;;37.20;19.50;;;;;;;0.71;60.77;100710.20;130970;1254;107550;-77
2023/04/06 04:07:32;;;;;;;31.10;18.30;;;;;;;0.70;60.75;100714.31;131110;1253;107523;-76
2023/04/06 04:10:38;;;;;;;36.00;18.50;;;;;;;0.69;60.69;100718.94;131147;1256;107529;-77
2023/04/06 04:13:44;;;;;;;31.90;19.50;;;;;;;0.66;60.64;100721.34;131148;1257;106385;-77
2023/04/06 04:16:49;;;;;;;34.50;20.10;;;;;;;0.67;60.87;100723.23;131042;1254;108663;-77
2023/04/06 04:19:55;;;;;;;32.10;17.80;;;;;;;0.67;60.94;100721.98;131280;1253;107458;-77
2023/04/06 04:23:00;;;;;;;34.10;20.50;;;;;;;0.64;61.05;100719.68;131218;1256;107829;-75
2023/04/06 04:26:09;;;;;;;38.90;20.50;;;;;;;0.62;61.12;100717.36;131317;1251;107605;-77
2023/04/06 04:29:16;;;;;;;39.40;22.50;;;;;;;0.61;61.00;100709.16;131162;1264;107515;-76
2023/04/06 04:32:22;;;;;;;36.40;21.40;;;;;;;0.57;60.98;100704.64;131263;1253;107564;-77
2023/04/06 04:35:29;;;;;;;40.30;20.90;;;;;;;0.51;61.49;100703.73;131038;1251;107464;-75
2023/04/06 04:38:35;;;;;;;38.60;23.00;;;;;;;0.45;61.64;100706.82;131218;1253;107493;-76
2023/04/06 04:41:41;;;;;;;41.80;25.80;;;;;;;0.44;61.82;100704.80;131315;1253;107534;-77
2023/04/06 04:44:48;;;;;;;39.30;25.20;;;;;;;0.42;62.22;100703.29;131089;1261;107401;-77
2023/04/06 04:47:57;;;;;;;36.20;22.30;;;;;;;0.40;62.15;100699.71;131061;1256;107582;-78
2023/04/06 04:51:07;;;;;;;33.70;19.10;;;;;;;0.40;61.89;100704.43;131042;1251;107352;-77
2023/04/06 04:54:32;;;;;;;32.20;18.30;;;;;;;0.41;61.78;100702.32;131160;1252;108649;-77
2023/04/06 04:57:38;;;;;;;34.70;18.50;;;;;;;0.42;62.16;100703.11;131047;1251;107937;-77
2023/04/06 05:00:44;;;;;;;35.00;18.00;;;;;;;0.42;62.23;100703.64;131044;1254;107477;-76
2023/04/06 05:03:50;;;;;;;29.30;16.20;;;;;;;0.44;62.15;100701.81;131077;1254;107423;-77
2023/04/06 05:07:06;;;;;;;32.20;19.50;;;;;;;0.46;62.33;100701.19;131042;1254;107565;-76
2023/04/06 05:10:12;;;;;;;29.90;16.70;;;;;;;0.49;62.66;100701.40;130998;1251;107437;-77
2023/04/06 05:13:27;;;;;;;30.00;17.00;;;;;;;0.51;62.57;100702.68;130949;1257;106414;-77
2023/04/06 05:16:33;;;;;;;30.00;17.10;;;;;;;0.55;62.80;100704.73;131105;1254;107472;-76
2023/04/06 05:19:39;;;;;;;29.30;17.20;;;;;;;0.62;62.63;100709.48;131011;1253;107507;-77
2023/04/06 05:22:44;;;;;;;29.70;17.90;;;;;;;0.68;62.77;100703.23;131011;1263;106837;-77
2023/04/06 05:25:50;;;;;;;30.50;18.10;;;;;;;0.74;63.09;100700.80;130991;1254;107596;-76
2023/04/06 05:28:59;;;;;;;35.90;20.00;;;;;;;0.78;63.37;100694.26;131106;1255;107619;-77
2023/04/06 05:32:06;;;;;;;35.70;20.10;;;;;;;0.81;63.53;100690.27;131018;1254;107504;-77
2023/04/06 05:35:12;;;;;;;30.70;18.70;;;;;;;0.87;63.22;100688.40;131117;1254;107450;-76
2023/04/06 05:38:18;;;;;;;33.00;17.90;;;;;;;0.94;63.27;100688.40;131087;1254;107497;-78
2023/04/06 05:41:24;;;;;;;32.50;18.40;;;;;;;1.02;63.19;100685.35;131035;1254;106552;-76
2023/04/06 05:44:30;;;;;;;30.90;18.80;;;;;;;1.09;63.21;100685.63;131047;1253;107443;-77
2023/04/06 05:47:45;;;;;;;33.00;19.00;;;;;;;1.19;63.19;100681.10;131014;1255;107521;-77
2023/04/06 05:50:59;;;;;;;31.30;17.60;;;;;;;1.28;63.28;100684.14;131016;1255;108612;-76
2023/04/06 05:54:10;;;;;;;31.10;17.70;;;;;;;1.36;63.24;100688.62;131038;1254;107432;-77
2023/04/06 05:57:16;;;;;;;32.50;17.30;;;;;;;1.41;63.25;100688.50;131038;1254;107615;-77
2023/04/06 06:00:23;;;;;;;26.80;14.90;;;;;;;1.50;63.07;100685.91;131112;1254;107454;-77
2023/04/06 06:03:33;;;;;;;23.10;13.40;;;;;;;1.63;63.12;100685.02;131078;1253;107442;-76
2023/04/06 06:06:39;;;;;;;21.00;12.90;;;;;;;1.72;62.91;100683.24;130999;1253;107720;-77
2023/04/06 06:09:50;;;;;;;21.00;11.70;;;;;;;1.74;62.69;100681.06;131043;1253;107477;-77
2023/04/06 06:13:05;;;;;;;17.90;11.00;;;;;;;1.83;62.84;100677.43;131040;1253;107620;-77
2023/04/06 06:16:11;;;;;;;19.50;11.00;;;;;;;1.96;62.77;100675.96;131035;1263;107492;-77
2023/04/06 06:19:22;;;;;;;16.40;9.60;;;;;;;2.05;62.43;100669.88;131011;1254;107579;-77
2023/04/06 06:22:28;;;;;;;19.00;10.20;;;;;;;2.03;62.46;100669.95;131111;1253;107540;-76
2023/04/06 06:25:34;;;;;;;15.70;9.20;;;;;;;2.03;62.58;100670.50;131301;1253;107528;-76
2023/04/06 06:28:40;;;;;;;16.00;9.70;;;;;;;2.06;62.49;100673.62;131270;1254;107532;-77
2023/04/06 06:31:46;;;;;;;16.70;10.00;;;;;;;2.12;62.38;100674.16;131025;1251;107470;-77
2023/04/06 06:34:51;;;;;;;16.20;10.00;;;;;;;2.18;62.53;100669.30;131099;1253;107360;-77
2023/04/06 06:37:58;;;;;;;15.70;7.90;;;;;;;2.25;62.28;100671.70;131090;1251;107363;-77
2023/04/06 06:41:05;;;;;;;12.80;8.10;;;;;;;2.27;62.19;100665.77;131253;1254;108504;-77
2023/04/06 06:44:12;;;;;;;12.10;6.90;;;;;;;2.37;62.23;100665.71;131293;1253;107562;-77
2023/04/06 06:47:17;;;;;;;11.50;6.90;;;;;;;2.57;62.13;100661.20;131130;1265;107317;-76
2023/04/06 06:50:23;;;;;;;14.80;8.00;;;;;;;2.79;62.08;100664.77;131272;1254;107524;-76
2023/04/06 06:53:28;;;;;;;17.90;10.30;;;;;;;2.96;61.60;100660.95;131010;1257;106729;-75
2023/04/06 06:56:35;;;;;;;12.90;7.10;;;;;;;3.09;61.05;100657.68;131053;1251;108491;-75
2023/04/06 06:59:41;;;;;;;12.70;7.60;;;;;;;3.24;61.24;100651.46;131335;1254;107440;-76
2023/04/06 07:02:47;;;;;;;9.50;5.90;;;;;;;3.32;60.86;100652.91;131030;1251;106482;-77
2023/04/06 07:05:53;;;;;;;10.30;6.10;;;;;;;3.33;60.61;100647.23;131053;1251;107233;-75
2023/04/06 07:08:59;;;;;;;11.50;6.50;;;;;;;3.32;60.47;100651.34;131104;1254;107389;-78
2023/04/06 07:12:05;;;;;;;10.60;6.00;;;;;;;3.31;60.95;100649.24;131186;1250;107498;-76
2023/04/06 07:15:11;;;;;;;10.60;5.30;;;;;;;3.43;60.15;100645.55;131029;1254;107532;-78
2023/04/06 07:18:18;;;;;;;9.50;5.50;;;;;;;3.51;60.04;100640.77;131142;1254;107543;-77
2023/04/06 07:21:24;;;;;;;9.50;5.90;;;;;;;3.67;60.05;100634.14;131182;1254;107528;-77
2023/04/06 07:24:30;;;;;;;8.70;5.30;;;;;;;3.79;59.24;100633.34;131261;1253;107547;-77
2023/04/06 07:27:35;;;;;;;7.50;5.10;;;;;;;3.84;58.90;100632.17;130959;1267;107572;-77
2023/04/06 07:30:42;;;;;;;9.00;5.00;;;;;;;3.93;58.61;100635.80;131049;1253;107460;-77
2023/04/06 07:33:49;;;;;;;8.00;4.30;;;;;;;4.05;58.29;100640.82;130993;1251;107369;-77
2023/04/06 07:36:56;;;;;;;7.10;4.30;;;;;;;4.11;57.89;100638.66;131031;1254;107639;-76
2023/04/06 07:40:02;;;;;;;6.70;4.20;;;;;;;4.15;56.90;100634.52;130946;1251;108642;-78
2023/04/06 07:43:09;;;;;;;8.00;4.30;;;;;;;4.26;57.68;100635.22;130998;1253;106532;-78
2023/04/06 07:46:15;;;;;;;9.90;4.80;;;;;;;4.51;57.56;100636.34;131057;1253;107472;-78
2023/04/06 07:49:22;;;;;;;6.60;3.90;;;;;;;4.69;57.51;100629.81;130939;1251;107215;-77
2023/04/06 07:52:28;;;;;;;7.10;3.80;;;;;;;4.75;56.34;100632.24;131045;1253;107454;-77
2023/04/06 07:55:34;;;;;;;6.20;3.90;;;;;;;4.70;56.33;100631.80;131027;1251;107745;-76
2023/04/06 07:58:39;;;;;;;6.80;3.90;;;;;;;4.76;56.10;100632.36;131182;1253;106520;-77
2023/04/06 08:01:45;;;;;;;7.30;4.40;;;;;;;4.84;57.27;100623.13;131071;1254;107542;-77
2023/04/06 08:04:50;;;;;;;7.30;4.10;;;;;;;4.96;55.78;100628.30;131013;1254;107560;-77
2023/04/06 08:07:56;;;;;;;7.50;4.00;;;;;;;4.81;55.43;100627.75;131046;1253;107539;-77
2023/04/06 08:11:02;;;;;;;6.00;3.60;;;;;;;4.73;55.37;100625.13;131178;1251;107268;-74
2023/04/06 08:14:08;;;;;;;6.40;3.60;;;;;;;4.71;54.77;100625.41;131414;1254;107430;-76
2023/04/06 08:17:14;;;;;;;6.30;4.10;;;;;;;4.68;55.05;100619.23;131193;1253;107540;-77
2023/04/06 08:20:19;;;;;;;6.80;4.50;;;;;;;4.74;55.15;100613.41;131258;1264;107561;-77
2023/04/06 08:23:25;;;;;;;7.00;4.10;;;;;;;4.86;54.50;100611.17;131239;1251;107533;-78
2023/04/06 08:26:30;;;;;;;8.00;4.50;;;;;;;4.88;53.63;100615.09;131047;1253;107387;-77
2023/04/06 08:29:36;;;;;;;7.20;4.10;;;;;;;4.90;53.94;100610.04;131056;1250;107482;-77
2023/04/06 08:32:42;;;;;;;9.20;4.90;;;;;;;4.93;54.12;100607.67;131225;1253;106563;-76
2023/04/06 08:35:47;;;;;;;7.10;3.90;;;;;;;4.97;53.88;100605.66;131241;1253;107530;-76
2023/04/06 08:38:53;;;;;;;7.10;4.60;;;;;;;5.04;54.68;100609.38;131004;1254;106629;-78
2023/04/06 08:42:00;;;;;;;5.30;3.50;;;;;;;5.09;51.89;100608.68;131068;1251;107424;-77
2023/04/06 08:45:07;;;;;;;5.40;3.60;;;;;;;5.12;52.29;100610.22;131371;1253;107342;-77
2023/04/06 08:48:15;;;;;;;4.20;3.10;;;;;;;5.26;53.59;100603.05;131349;1253;108674;-77
2023/04/06 08:51:22;;;;;;;4.20;2.90;;;;;;;5.39;52.75;100599.86;131113;1253;107457;-77
2023/04/06 08:54:28;;;;;;;5.40;3.20;;;;;;;5.36;50.84;100607.45;131323;1253;107537;-77
2023/04/06 08:57:36;;;;;;;6.90;3.70;;;;;;;5.34;52.26;100599.11;131068;1253;106577;-77
2023/04/06 09:00:42;;;;;;;6.90;3.90;;;;;;;5.46;51.84;100600.55;131326;1253;106035;-77
2023/04/06 09:03:50;;;;;;;6.10;3.80;;;;;;;5.53;51.84;100596.52;131105;1250;107246;-77
2023/04/06 09:06:55;;;;;;;5.70;3.90;;;;;;;5.66;52.98;100595.90;131065;1253;108093;-77
2023/04/06 09:10:00;;;;;;;4.80;3.10;;;;;;;5.82;52.31;100599.86;131083;1253;105526;-77
2023/04/06 09:13:08;;;;;;;5.50;3.60;;;;;;;5.86;52.74;100596.01;131059;1250;107466;-77
2023/04/06 09:16:13;;;;;;;5.40;3.30;;;;;;;5.94;52.81;100591.40;131148;1253;107557;-77
2023/04/06 09:19:18;;;;;;;9.80;5.00;;;;;;;6.05;51.76;100583.17;131200;1253;107539;-76
2023/04/06 09:22:26;;;;;;;7.60;4.30;;;;;;;6.04;51.97;100589.62;131319;1251;107393;-77
2023/04/06 09:25:32;;;;;;;5.70;3.50;;;;;;;6.06;52.01;100585.75;131186;1251;107547;-77
2023/04/06 09:28:49;;;;;;;7.50;4.10;;;;;;;5.93;51.75;100588.42;131060;1249;107510;-77
2023/04/06 09:32:02;;;;;;;6.40;4.30;;;;;;;5.68;52.46;100585.74;131032;1251;107437;-77
2023/04/06 09:35:12;;;;;;;7.20;4.60;;;;;;;5.53;52.84;100581.20;130996;1253;106723;-78
2023/04/06 09:38:17;;;;;;;10.10;5.30;;;;;;;5.55;52.58;100579.84;131110;1253;107379;-77
2023/04/06 09:41:27;;;;;;;8.00;5.20;;;;;;;5.53;52.08;100578.17;131168;1251;107215;-77
2023/04/06 09:44:33;;;;;;;6.50;4.10;;;;;;;5.56;52.67;100573.02;131079;1250;107983;-76
2023/04/06 09:47:40;;;;;;;5.60;4.00;;;;;;;5.60;53.01;100569.03;131030;1253;107508;-77
2023/04/06 09:50:47;;;;;;;6.20;3.90;;;;;;;5.55;52.60;100570.82;131020;1253;106838;-77
2023/04/06 09:53:54;;;;;;;8.90;4.90;;;;;;;5.45;52.73;100565.98;131085;1250;108670;-77
2023/04/06 09:57:06;;;;;;;6.10;4.50;;;;;;;5.38;52.40;100563.77;131080;1251;107381;-75
2023/04/06 10:00:17;;;;;;;6.00;3.80;;;;;;;5.38;52.31;100563.36;131072;1251;107481;-77
2023/04/06 10:03:42;;;;;;;6.80;4.50;;;;;;;5.28;51.91;100560.39;131086;1251;107183;-77
2023/04/06 10:06:52;;;;;;;7.10;4.30;;;;;;;5.23;52.36;100560.99;131319;1251;107238;-77
2023/04/06 10:10:00;;;;;;;6.10;4.10;;;;;;;5.14;52.48;100564.07;131307;1253;107493;-78
2023/04/06 10:13:06;;;;;;;5.70;3.80;;;;;;;5.07;52.91;100559.45;131253;1253;107527;-75
2023/04/06 10:16:13;;;;;;;6.00;4.50;;;;;;;5.11;53.58;100560.61;131330;1251;108609;-75
2023/04/06 10:19:23;;;;;;;6.20;4.10;;;;;;;5.08;53.46;100559.02;131137;1253;106678;-77
2023/04/06 10:22:37;;;;;;;5.40;4.00;;;;;;;4.98;54.70;100558.16;131031;1253;107560;-75
2023/04/06 10:25:55;;;;;;;7.10;4.60;;;;;;;4.91;54.56;100556.67;131165;1254;107571;-77
2023/04/06 10:29:06;;;;;;;7.20;4.50;;;;;;;4.97;54.79;100553.81;131033;1253;107532;-78
2023/04/06 10:32:11;;;;;;;5.60;4.00;;;;;;;4.99;55.11;100551.23;131074;1253;107552;-76
2023/04/06 10:35:18;;;;;;;7.20;4.10;;;;;;;4.98;55.03;100545.80;131148;1250;107359;-77
2023/04/06 10:38:33;;;;;;;6.60;4.70;;;;;;;5.06;54.75;100539.21;131138;1254;107521;-77
2023/04/06 10:41:44;;;;;;;7.80;4.70;;;;;;;5.13;54.99;100539.63;131078;1253;107515;-77
2023/04/06 10:44:52;;;;;;;6.80;4.90;;;;;;;5.25;55.25;100543.50;131279;1253;107574;-78
2023/04/06 10:47:57;;;;;;;6.80;4.90;;;;;;;5.29;55.25;100544.48;131295;1253;108703;-76
2023/04/06 10:51:08;;;;;;;6.40;4.70;;;;;;;5.25;56.09;100546.67;131219;1253;107502;-76
2023/04/06 10:54:14;;;;;;;6.00;4.10;;;;;;;5.18;57.15;100541.75;131052;1253;107552;-77
2023/04/06 10:57:30;;;;;;;6.50;4.00;;;;;;;5.21;57.33;100532.51;131050;1250;107350;-77
2023/04/06 11:00:36;;;;;;;6.90;4.30;;;;;;;5.25;57.87;100527.79;131063;1253;106737;-77
2023/04/06 11:03:47;;;;;;;7.80;5.10;;;;;;;5.21;57.99;100535.14;131043;1251;107251;-78
2023/04/06 11:06:53;;;;;;;9.40;4.70;;;;;;;5.23;57.77;100527.24;131085;1251;107242;-77
2023/04/06 11:09:59;;;;;;;6.30;4.40;;;;;;;5.24;57.78;100530.02;131202;1254;107401;-77
2023/04/06 11:13:05;;;;;;;16.80;9.70;;;;;;;5.15;57.69;100520.59;131077;1253;108747;-77
2023/04/06 11:16:15;;;;;;;16.60;13.10;;;;;;;5.03;59.21;100520.23;131285;1253;107335;-76
2023/04/06 11:19:20;;;;;;;37.60;27.20;;;;;;;4.78;60.05;100518.33;131201;1253;105911;-77
2023/04/06 11:22:26;;;;;;;17.40;12.50;;;;;;;4.63;60.01;100516.52;131216;1253;107533;-77
2023/04/06 11:25:32;;;;;;;11.50;7.50;;;;;;;4.64;59.96;100506.96;131358;1253;108148;-77
2023/04/06 11:28:37;;;;;;;17.60;11.20;;;;;;;4.66;60.48;100508.75;131270;1250;108658;-77
2023/04/06 11:31:49;;;;;;;25.50;14.30;;;;;;;4.60;61.23;100506.89;131065;1250;107352;-77
2023/04/06 11:34:54;;;;;;;30.00;17.50;;;;;;;4.46;61.74;100502.23;131229;1253;107595;-75
2023/04/06 11:38:03;;;;;;;14.60;10.70;;;;;;;4.47;61.32;100502.16;131343;1253;107646;-75
2023/04/06 11:41:09;;;;;;;14.50;9.50;;;;;;;4.46;61.70;100498.41;131354;1253;107444;-77
2023/04/06 11:44:14;;;;;;;9.30;5.90;;;;;;;4.47;62.36;100498.29;131014;1253;107464;-77
2023/04/06 11:47:22;;;;;;;9.30;6.70;;;;;;;4.48;62.52;100501.25;131077;1253;107543;-76
2023/04/06 11:50:33;;;;;;;11.30;6.60;;;;;;;4.48;63.29;100494.20;131080;1251;107347;-74
2023/04/06 11:53:46;;;;;;;10.00;6.00;;;;;;;4.54;63.01;100489.91;131270;1253;107412;-77
2023/04/06 11:56:52;;;;;;;11.90;7.20;;;;;;;4.68;63.23;100481.48;131086;1253;107566;-76
2023/04/06 11:59:57;;;;;;;9.20;5.80;;;;;;;4.75;63.36;100478.02;131282;1250;107364;-76
2023/04/06 12:03:03;;;;;;;9.00;5.80;;;;;;;4.67;64.16;100483.83;131260;1251;107360;-77
2023/04/06 12:06:08;;;;;;;11.30;6.70;;;;;;;4.70;63.83;100472.89;131141;1253;105397;-76
2023/04/06 12:09:14;;;;;;;9.00;5.70;;;;;;;4.71;63.70;100477.23;131210;1251;107267;-77
2023/04/06 12:12:19;;;;;;;9.00;5.60;;;;;;;4.76;63.91;100477.64;131103;1253;107558;-76
2023/04/06 12:15:25;;;;;;;10.60;6.00;;;;;;;4.81;64.66;100474.09;131111;1250;107222;-77
2023/04/06 12:18:31;;;;;;;12.70;7.70;;;;;;;4.79;65.14;100477.54;131077;1253;106647;-76
2023/04/06 12:21:37;;;;;;;8.10;5.80;;;;;;;4.68;66.11;100472.67;131066;1251;107277;-77
2023/04/06 12:24:43;;;;;;;9.70;6.30;;;;;;;4.58;66.51;100473.39;131031;1253;107553;-77
2023/04/06 12:27:48;;;;;;;10.20;6.50;;;;;;;4.52;67.65;100470.33;131064;1263;105701;-76
2023/04/06 12:30:55;;;;;;;10.40;6.50;;;;;;;4.45;67.19;100467.51;131195;1250;107432;-75
2023/04/06 12:34:01;;;;;;;10.20;6.90;;;;;;;4.37;68.24;100469.05;131237;1251;107519;-74
2023/04/06 12:37:06;;;;;;;10.80;6.70;;;;;;;4.35;67.26;100471.50;131197;1251;107338;-76
2023/04/06 12:40:14;;;;;;;11.50;6.60;;;;;;;4.27;69.05;100474.67;131206;1250;105675;-77
2023/04/06 12:43:20;;;;;;;11.30;7.10;;;;;;;4.14;70.40;100476.10;131350;1251;107205;-77
2023/04/06 12:46:25;;;;;;;13.50;7.60;;;;;;;4.08;69.00;100466.52;131242;1254;107260;-77
2023/04/06 12:49:31;;;;;;;12.40;7.80;;;;;;;4.15;70.47;100463.17;131346;1251;107378;-74
2023/04/06 12:52:37;;;;;;;14.80;8.10;;;;;;;4.12;69.58;100463.23;131323;1253;106724;-75
2023/04/06 12:55:42;;;;;;;13.50;8.30;;;;;;;4.02;70.77;100461.78;131097;1253;107607;-78
2023/04/06 12:58:48;;;;;;;9.80;6.30;;;;;;;3.76;73.47;100457.09;131169;1253;107576;-75
2023/04/06 13:01:53;;;;;;;10.60;6.60;;;;;;;3.57;73.79;100453.63;131260;1253;107456;-78
2023/04/06 13:04:59;;;;;;;9.70;7.10;;;;;;;3.36;73.64;100445.84;131066;1250;107370;-77
2023/04/06 13:08:04;;;;;;;10.40;7.80;;;;;;;3.27;74.47;100438.88;131106;1251;108640;-75
2023/04/06 13:11:10;;;;;;;11.40;7.20;;;;;;;3.19;75.90;100438.20;131285;1253;107534;-75
2023/04/06 13:14:15;;;;;;;11.00;7.00;;;;;;;3.07;75.15;100436.33;131225;1253;107075;-78
2023/04/06 13:17:22;;;;;;;11.00;7.20;;;;;;;2.95;76.28;100429.20;131111;1263;107348;-76
2023/04/06 13:20:27;;;;;;;11.60;6.90;;;;;;;2.91;76.53;100422.25;131357;1263;107376;-76
2023/04/06 13:23:33;;;;;;;12.40;7.80;;;;;;;2.87;77.28;100423.75;131101;1253;107368;-77
2023/04/06 13:26:39;;;;;;;12.50;8.20;;;;;;;2.89;78.05;100415.23;131023;1253;107514;-78
2023/04/06 13:29:44;;;;;;;13.50;10.00;;;;;;;2.87;78.23;100416.73;131031;1254;107288;-77
2023/04/06 13:32:50;;;;;;;12.50;8.40;;;;;;;2.89;78.49;100418.16;131053;1253;107431;-77
2023/04/06 13:35:56;;;;;;;14.80;8.50;;;;;;;2.83;80.72;100414.40;131338;1253;107483;-75
2023/04/06 13:39:02;;;;;;;12.40;7.80;;;;;;;2.77;79.58;100411.58;131094;1255;107407;-75
2023/04/06 13:42:07;;;;;;;13.30;8.10;;;;;;;2.70;81.66;100416.38;131313;1272;107356;-74
2023/04/06 13:45:13;;;;;;;13.40;8.00;;;;;;;2.66;81.42;100405.77;131382;1253;107612;-75
2023/04/06 13:48:19;;;;;;;13.00;8.50;;;;;;;2.66;80.37;100409.79;130997;1251;107356;-76
2023/04/06 13:51:26;;;;;;;11.60;8.00;;;;;;;2.73;80.04;100402.36;131126;1253;107364;-77
2023/04/06 13:54:31;;;;;;;13.30;8.40;;;;;;;2.82;81.36;100399.70;131141;1250;105863;-75
2023/04/06 13:57:37;;;;;;;13.70;8.90;;;;;;;2.85;80.68;100393.15;131047;1253;107525;-76
2023/04/06 14:00:43;;;;;;;14.30;9.70;;;;;;;2.89;82.08;100395.52;131014;1253;106709;-77
2023/04/06 14:03:50;;;;;;;12.50;8.80;;;;;;;2.87;81.20;100394.95;131047;1261;107535;-78
2023/04/06 14:06:55;;;;;;;11.60;7.80;;;;;;;2.82;81.60;100390.73;131027;1253;107250;-77
2023/04/06 14:10:01;;;;;;;13.80;8.90;;;;;;;2.69;83.67;100389.77;131021;1253;107428;-77